Time;durP1;ratioP1;P1;durP2;ratioP2;P2;SDS_P1;SDS_P2;PMS_P1;PMS_P2;Temp;Humidity;BMP_temperature;BMP_pressure;BME280_temperature;BME280_humidity;BME280_pressure;Samples;Min_cycle;Max_cycle;Signal;HPM_P1;HPM_P2
2022/01/02 00:00:28;;;;;;;4.15;2.72;;;10.90;99.90;;;;;;5056484;28;20045;-86
2022/01/02 00:03:04;;;;;;;7.60;3.38;;;11.00;99.90;;;;;;5090314;28;20044;-86
2022/01/02 00:05:35;;;;;;;5.90;2.55;;;10.90;99.90;;;;;;5056220;28;20049;-86
2022/01/02 00:08:10;;;;;;;4.90;3.28;;;10.90;99.90;;;;;;5073235;28;20145;-87
2022/01/02 00:10:56;;;;;;;4.85;2.85;;;10.90;99.90;;;;;;5056315;28;20051;-86
2022/01/02 00:13:28;;;;;;;5.90;2.90;;;10.90;99.90;;;;;;5090531;28;20063;-87
2022/01/02 00:15:56;;;;;;;3.20;2.53;;;10.90;99.90;;;;;;5056781;28;20101;-87
2022/01/02 00:18:27;;;;;;;6.55;3.45;;;10.90;99.90;;;;;;5056518;28;20056;-87
2022/01/02 00:20:55;;;;;;;4.22;3.00;;;10.80;99.90;;;;;;5056612;28;20051;-87
2022/01/02 00:23:24;;;;;;;3.17;2.72;;;10.80;99.90;;;;;;5056481;28;20091;-87
2022/01/02 00:25:54;;;;;;;4.20;3.15;;;10.80;99.90;;;;;;5072620;28;20056;-87
2022/01/02 00:28:21;;;;;;;6.35;3.60;;;10.70;99.90;;;;;;5072949;28;20459;-87
2022/01/02 00:30:48;;;;;;;6.68;3.60;;;10.80;99.90;;;;;;5055896;28;20106;-87
2022/01/02 00:33:14;;;;;;;3.95;3.20;;;10.70;99.90;;;;;;5056208;28;20445;-87
2022/01/02 00:35:40;;;;;;;10.00;4.35;;;10.70;99.90;;;;;;5072590;28;20471;-87
2022/01/02 00:38:09;;;;;;;7.60;3.27;;;10.70;99.90;;;;;;5073701;28;20043;-87
2022/01/02 00:40:40;;;;;;;7.45;4.18;;;10.70;99.90;;;;;;5055908;28;20051;-87
2022/01/02 00:43:12;;;;;;;5.85;3.33;;;10.70;99.90;;;;;;5072925;28;20056;-87
2022/01/02 00:45:45;;;;;;;5.97;3.20;;;10.70;99.90;;;;;;5055521;28;20394;-87
2022/01/02 00:48:17;;;;;;;9.35;4.18;;;10.70;99.90;;;;;;5089236;28;20135;-87
2022/01/02 00:50:55;;;;;;;6.53;3.55;;;10.70;99.90;;;;;;5055513;28;20060;-87
2022/01/02 00:53:24;;;;;;;6.18;4.53;;;10.70;99.90;;;;;;5089155;28;20053;-87
2022/01/02 00:55:56;;;;;;;9.18;4.13;;;10.70;99.90;;;;;;5055513;28;20040;-87
2022/01/02 00:58:45;;;;;;;5.32;3.65;;;10.70;99.90;;;;;;5056188;28;20091;-87
2022/01/02 01:01:15;;;;;;;5.45;3.58;;;10.60;99.90;;;;;;5090045;28;20415;-87
2022/01/02 01:03:41;;;;;;;7.72;3.92;;;10.70;99.90;;;;;;5054717;28;20052;-87
2022/01/02 01:06:10;;;;;;;7.03;4.13;;;10.70;99.90;;;;;;5088994;28;20045;-87
2022/01/02 01:08:37;;;;;;;6.43;3.92;;;10.70;99.90;;;;;;5072009;28;20123;-88
2022/01/02 01:11:08;;;;;;;10.10;3.78;;;10.70;99.90;;;;;;5072093;28;20178;-87
2022/01/02 01:13:34;;;;;;;10.27;4.32;;;10.70;99.90;;;;;;5071964;28;20040;-87
2022/01/02 01:16:02;;;;;;;7.43;3.90;;;10.70;99.90;;;;;;5055668;28;20055;-87
2022/01/02 01:18:28;;;;;;;7.53;4.05;;;10.70;99.90;;;;;;5055058;28;20086;-87
2022/01/02 01:20:54;;;;;;;6.50;3.77;;;10.70;99.90;;;;;;5070923;28;20098;-87
2022/01/02 01:23:20;;;;;;;5.80;4.03;;;10.70;99.90;;;;;;5055127;28;20052;-87
2022/01/02 01:25:49;;;;;;;8.43;4.05;;;10.70;99.90;;;;;;5054939;28;20052;-87
2022/01/02 01:28:16;;;;;;;5.63;4.18;;;10.70;99.90;;;;;;5071482;28;20078;-87
2022/01/02 01:30:42;;;;;;;6.10;3.70;;;10.70;99.90;;;;;;5071952;28;20446;-87
2022/01/02 01:33:10;;;;;;;6.72;4.15;;;10.70;99.90;;;;;;5071640;28;20051;-87
2022/01/02 01:35:37;;;;;;;5.35;4.07;;;10.70;99.90;;;;;;5071386;28;20048;-87
2022/01/02 01:38:05;;;;;;;5.65;4.05;;;10.70;99.90;;;;;;5071124;28;20079;-87
2022/01/02 01:40:50;;;;;;;6.15;4.13;;;10.70;99.90;;;;;;5088583;28;20127;-87
2022/01/02 01:43:16;;;;;;;8.27;4.38;;;10.60;99.90;;;;;;5071728;28;20052;-87
2022/01/02 01:45:42;;;;;;;10.57;4.35;;;10.70;99.90;;;;;;5054447;28;20056;-87
2022/01/02 01:48:08;;;;;;;6.93;4.07;;;10.70;99.90;;;;;;5037663;28;20040;-87
2022/01/02 01:50:42;;;;;;;6.70;4.38;;;10.60;99.90;;;;;;5088200;28;20080;-87
2022/01/02 01:53:09;;;;;;;5.78;3.83;;;10.60;99.90;;;;;;5054666;28;20383;-87
2022/01/02 01:55:39;;;;;;;8.23;4.85;;;10.70;99.90;;;;;;5054725;28;20056;-87
2022/01/02 01:58:09;;;;;;;9.80;4.97;;;10.60;99.90;;;;;;5071350;28;20044;-87
2022/01/02 02:00:35;;;;;;;9.77;4.43;;;10.60;99.90;;;;;;5071308;28;20049;-87
2022/01/02 02:03:02;;;;;;;11.40;4.43;;;10.60;99.90;;;;;;5070920;28;20045;-88
2022/01/02 02:05:31;;;;;;;6.80;4.30;;;10.60;99.90;;;;;;5070906;28;20044;-87
2022/01/02 02:07:56;;;;;;;7.63;4.45;;;10.60;99.90;;;;;;5071027;28;20049;-87
2022/01/02 02:12:56;;;;;;;7.78;4.75;;;10.60;99.90;;;;;;5071049;28;20048;-87
2022/01/02 02:15:22;;;;;;;6.50;4.13;;;10.70;99.90;;;;;;5054678;28;20131;-87
2022/01/02 02:17:49;;;;;;;;;;;10.60;99.90;;;;;;5054221;28;20059;-88
2022/01/02 02:20:21;;;;;;;7.00;4.05;;;10.60;99.90;;;;;;5054291;28;19920;-87
2022/01/02 02:22:50;;;;;;;9.40;4.68;;;10.60;99.90;;;;;;5054000;28;20067;-88
2022/01/02 02:25:19;;;;;;;6.03;4.63;;;10.70;99.90;;;;;;5054101;28;20047;-87
2022/01/02 02:28:07;;;;;;;6.63;4.63;;;10.60;99.90;;;;;;5054001;28;20412;-88
2022/01/02 02:30:35;;;;;;;8.98;4.82;;;10.60;99.90;;;;;;5054466;28;20089;-88
2022/01/02 02:33:03;;;;;;;8.10;4.93;;;10.60;99.90;;;;;;5087502;28;20087;-87
2022/01/02 02:35:33;;;;;;;7.53;3.97;;;10.60;99.90;;;;;;5054433;28;20056;-88
2022/01/02 02:37:59;;;;;;;8.65;4.38;;;10.60;99.90;;;;;;5054165;28;20136;-88
2022/01/02 02:40:28;;;;;;;5.18;4.32;;;10.60;99.90;;;;;;5071311;28;20059;-87
2022/01/02 02:51:01;;;;;;;6.28;4.03;;;10.60;99.90;;;;;;5074193;28;20040;-88
2022/01/02 02:53:27;;;;;;;12.07;5.78;;;10.60;99.90;;;;;;5041483;28;20055;-87
2022/01/02 02:55:56;;;;;;;7.10;3.63;;;10.60;99.90;;;;;;5090854;28;20041;-87
2022/01/02 03:01:00;;;;;;;5.97;4.63;;;10.60;99.90;;;;;;5074074;28;20084;-87
2022/01/02 03:03:26;;;;;;;9.38;4.18;;;10.60;99.90;;;;;;5057802;28;20040;-88
2022/01/02 03:05:52;;;;;;;5.93;3.97;;;10.60;99.90;;;;;;5057444;28;20056;-88
2022/01/02 03:08:18;;;;;;;13.67;4.77;;;10.50;99.90;;;;;;5057967;28;20055;-87
2022/01/02 03:10:44;;;;;;;5.70;3.63;;;10.60;99.90;;;;;;5057733;28;20052;-87
2022/01/02 03:13:10;;;;;;;6.07;4.73;;;10.70;99.90;;;;;;5057614;28;20040;-87
2022/01/02 03:15:36;;;;;;;11.80;5.23;;;10.60;99.90;;;;;;5074483;28;20052;-87
2022/01/02 03:18:02;;;;;;;7.00;4.50;;;10.60;99.90;;;;;;5074894;28;20054;-87
2022/01/02 03:20:27;;;;;;;9.93;4.93;;;10.60;99.90;;;;;;5074113;28;20078;-87
2022/01/02 03:22:53;;;;;;;8.37;4.50;;;10.60;99.90;;;;;;5057236;28;20045;-88
2022/01/02 03:25:19;;;;;;;7.37;4.23;;;10.50;99.90;;;;;;5040641;28;20106;-87
2022/01/02 03:27:47;;;;;;;9.73;5.03;;;10.50;99.90;;;;;;5074257;28;20094;-87
2022/01/02 03:30:16;;;;;;;9.02;4.90;;;10.50;99.90;;;;;;5041546;28;20048;-87
2022/01/02 03:32:42;;;;;;;7.73;4.43;;;10.60;99.90;;;;;;5074094;28;20110;-87
2022/01/02 03:35:08;;;;;;;9.10;5.30;;;10.60;99.90;;;;;;5056706;28;20072;-87
2022/01/02 03:37:34;;;;;;;6.43;4.25;;;10.60;99.90;;;;;;5056724;28;20052;-87
2022/01/02 03:40:01;;;;;;;9.87;5.63;;;10.60;99.90;;;;;;5056841;28;20048;-87
2022/01/02 03:42:27;;;;;;;10.70;4.70;;;10.60;99.90;;;;;;5090649;28;20287;-88
2022/01/02 03:44:53;;;;;;;8.43;5.13;;;10.60;99.90;;;;;;5056824;28;20040;-87
2022/01/02 03:47:18;;;;;;;9.90;4.90;;;10.60;99.90;;;;;;5056825;28;20063;-87
2022/01/02 03:49:46;;;;;;;8.90;4.40;;;10.60;99.90;;;;;;5057019;28;20487;-88
2022/01/02 03:52:12;;;;;;;6.78;4.57;;;10.60;99.90;;;;;;5056308;28;20064;-87
2022/01/02 03:54:38;;;;;;;5.23;4.17;;;10.60;99.90;;;;;;5071870;28;20048;-87
2022/01/02 03:57:04;;;;;;;7.33;4.50;;;10.60;99.90;;;;;;5054784;28;20135;-88
2022/01/02 03:59:29;;;;;;;8.23;4.27;;;10.60;99.90;;;;;;5055747;28;20044;-88
2022/01/02 04:01:55;;;;;;;8.57;4.57;;;10.60;99.90;;;;;;5055676;28;20044;-88
2022/01/02 04:04:21;;;;;;;6.17;4.23;;;10.60;99.90;;;;;;5071955;28;20071;-87
2022/01/02 04:06:47;;;;;;;8.40;4.50;;;10.60;99.90;;;;;;5089364;28;20368;-88
2022/01/02 04:09:12;;;;;;;5.07;3.87;;;10.60;99.90;;;;;;5088324;28;20051;-88
2022/01/02 04:11:38;;;;;;;17.93;3.90;;;10.70;99.90;;;;;;5055158;28;20040;-87
2022/01/02 04:14:04;;;;;;;10.00;3.80;;;10.60;99.90;;;;;;5055082;28;20045;-87
2022/01/02 04:16:30;;;;;;;9.48;4.65;;;10.70;99.90;;;;;;5072139;28;20047;-87
2022/01/02 04:18:58;;;;;;;5.33;3.90;;;10.70;99.90;;;;;;5055572;28;20060;-87
2022/01/02 04:21:24;;;;;;;10.13;3.80;;;10.60;99.90;;;;;;5088564;28;20081;-87
2022/01/02 04:23:53;;;;;;;7.03;4.20;;;10.70;99.90;;;;;;5055594;28;20067;-87
2022/01/02 04:26:18;;;;;;;10.53;4.70;;;10.70;99.90;;;;;;5055011;28;20036;-87
2022/01/02 04:28:44;;;;;;;8.27;4.53;;;10.70;99.90;;;;;;5072000;28;20040;-88
2022/01/02 04:31:11;;;;;;;6.43;3.70;;;10.70;99.90;;;;;;5071624;28;20051;-87
2022/01/02 04:33:37;;;;;;;7.95;4.35;;;10.70;99.90;;;;;;5071424;28;20052;-88
2022/01/02 04:36:04;;;;;;;4.82;3.85;;;10.70;99.90;;;;;;5054853;28;20131;-87
2022/01/02 04:38:30;;;;;;;6.68;4.15;;;10.70;99.90;;;;;;5071783;28;20173;-86
2022/01/02 04:40:56;;;;;;;7.38;3.95;;;10.70;99.90;;;;;;5071951;28;20052;-87
2022/01/02 04:43:22;;;;;;;8.57;5.28;;;10.70;99.90;;;;;;5088065;28;20045;-87
2022/01/02 04:45:48;;;;;;;8.40;4.10;;;10.70;99.90;;;;;;5055059;28;20047;-87
2022/01/02 04:48:16;;;;;;;5.73;4.37;;;10.70;99.90;;;;;;5088146;28;20489;-88
2022/01/02 04:50:42;;;;;;;5.53;4.00;;;10.70;99.90;;;;;;5054887;28;20052;-88
2022/01/02 04:53:08;;;;;;;4.60;3.47;;;10.70;99.90;;;;;;5014701;28;1135609;-88
2022/01/02 04:55:34;;;;;;;8.17;4.37;;;10.70;99.90;;;;;;5088782;28;20040;-87
2022/01/02 04:58:00;;;;;;;7.03;3.83;;;10.70;99.90;;;;;;5055825;28;20052;-87
2022/01/02 05:00:26;;;;;;;5.32;4.13;;;10.80;99.90;;;;;;5055319;28;20140;-88
2022/01/02 05:02:52;;;;;;;9.53;4.03;;;10.80;99.90;;;;;;5055744;28;20127;-87
2022/01/02 05:05:19;;;;;;;6.40;3.17;;;10.80;99.90;;;;;;5054340;28;20074;-87
2022/01/02 05:07:45;;;;;;;6.40;3.58;;;10.80;99.90;;;;;;5055605;28;20048;-88
2022/01/02 05:10:24;;;;;;;;;;;;;;;;;;;;;
2022/01/02 05:12:50;;;;;;;7.93;3.30;;;11.00;99.90;;;;;;5072161;28;20044;-87
2022/01/02 05:15:16;;;;;;;8.33;3.73;;;10.80;99.90;;;;;;5055384;28;20059;-87
2022/01/02 05:17:44;;;;;;;6.28;3.80;;;11.00;99.90;;;;;;5055525;28;20044;-88
2022/01/02 05:20:12;;;;;;;7.82;3.45;;;10.90;99.90;;;;;;5054914;28;20048;-88
2022/01/02 05:22:40;;;;;;;8.57;3.38;;;11.00;99.90;;;;;;5089008;28;20041;-88
2022/01/02 05:25:06;;;;;;;6.38;2.97;;;11.00;99.90;;;;;;5071632;28;20041;-88
2022/01/02 05:27:35;;;;;;;4.93;3.22;;;11.00;99.90;;;;;;5055072;28;20052;-87
2022/01/02 05:30:01;;;;;;;4.35;3.30;;;11.00;99.90;;;;;;5055154;28;20398;-88
2022/01/02 05:32:26;;;;;;;10.77;3.57;;;11.00;99.90;;;;;;5054766;28;20044;-88
2022/01/02 05:34:55;;;;;;;6.77;3.30;;;11.00;99.90;;;;;;5055152;28;20044;-88
2022/01/02 05:37:21;;;;;;;5.03;2.83;;;10.70;99.90;;;;;;5071420;28;20084;-88
2022/01/02 05:39:46;;;;;;;6.03;3.57;;;11.00;99.90;;;;;;5055290;28;20041;-88
2022/01/02 05:42:12;;;;;;;4.70;2.87;;;11.00;99.90;;;;;;5054919;28;20056;-87
2022/01/02 05:44:38;;;;;;;5.23;3.30;;;10.90;99.90;;;;;;5088380;28;20040;-87
2022/01/02 05:47:04;;;;;;;5.97;3.80;;;11.00;99.90;;;;;;5054974;28;20055;-87
2022/01/02 05:49:29;;;;;;;8.13;3.43;;;11.00;99.90;;;;;;5087665;28;20592;-87
2022/01/02 05:51:57;;;;;;;5.37;3.33;;;10.90;99.90;;;;;;5055179;28;20048;-87
2022/01/02 05:54:23;;;;;;;7.90;2.92;;;11.00;99.90;;;;;;5087520;28;20067;-88
2022/01/02 05:56:50;;;;;;;3.70;2.70;;;11.00;99.90;;;;;;5054902;28;20471;-87
2022/01/02 05:59:16;;;;;;;10.13;3.70;;;11.00;99.90;;;;;;5071306;28;20095;-88
2022/01/02 06:01:42;;;;;;;4.73;2.60;;;11.00;99.90;;;;;;5054832;28;20155;-87
2022/01/02 06:04:08;;;;;;;7.40;3.10;;;11.00;99.90;;;;;;5058091;28;20048;-89
2022/01/02 06:06:36;;;;;;;6.17;3.13;;;11.00;99.90;;;;;;5058779;28;20048;-87
2022/01/02 06:09:02;;;;;;;10.63;3.75;;;11.00;99.90;;;;;;5076303;28;20048;-87
2022/01/02 06:11:29;;;;;;;6.60;3.07;;;11.10;99.90;;;;;;5059973;28;20123;-88
2022/01/02 06:13:58;;;;;;;5.70;2.83;;;11.10;99.90;;;;;;5061984;28;20063;-87
2022/01/02 06:16:23;;;;;;;7.95;3.15;;;11.10;99.90;;;;;;5071268;28;20071;-87
2022/01/02 06:18:51;;;;;;;8.40;2.70;;;11.10;99.90;;;;;;5054849;28;20475;-87
2022/01/02 06:21:17;;;;;;;4.68;2.50;;;11.10;99.90;;;;;;5071022;28;20040;-88
2022/01/02 06:23:43;;;;;;;11.30;3.27;;;11.10;99.90;;;;;;5054720;28;20386;-88
2022/01/02 06:26:08;;;;;;;8.30;3.47;;;11.10;99.90;;;;;;5071405;28;20394;-87
2022/01/02 06:28:34;;;;;;;5.53;2.83;;;11.20;99.90;;;;;;5087909;28;20636;-87
2022/01/02 06:31:00;;;;;;;8.83;2.83;;;11.20;99.90;;;;;;5054805;28;20040;-87
2022/01/02 06:33:26;;;;;;;4.10;2.90;;;11.20;99.90;;;;;;5088043;28;20040;-87
2022/01/02 06:35:52;;;;;;;5.30;3.23;;;11.20;99.90;;;;;;5054972;28;20110;-88
2022/01/02 06:38:21;;;;;;;7.60;2.67;;;11.20;99.90;;;;;;5054328;28;20135;-87
2022/01/02 06:40:50;;;;;;;5.18;2.58;;;11.20;99.90;;;;;;5054561;28;20394;-87
2022/01/02 06:43:20;;;;;;;2.80;2.17;;;11.20;99.90;;;;;;5071527;28;20079;-87
2022/01/02 06:45:47;;;;;;;8.05;2.85;;;11.20;99.90;;;;;;5071002;28;20148;-88
2022/01/02 06:48:13;;;;;;;7.60;2.92;;;11.30;99.90;;;;;;5054384;28;20049;-88
2022/01/02 06:50:39;;;;;;;7.20;3.03;;;11.30;99.90;;;;;;5054019;28;20386;-88
2022/01/02 06:53:05;;;;;;;7.53;2.97;;;11.30;99.90;;;;;;5054187;28;20052;-88
2022/01/02 06:55:31;;;;;;;5.25;2.70;;;11.30;99.90;;;;;;5054130;28;20051;-88
2022/01/02 06:57:57;;;;;;;8.93;2.77;;;11.30;99.90;;;;;;5071176;28;20045;-87
2022/01/02 07:00:23;;;;;;;3.30;2.33;;;11.30;99.90;;;;;;5070526;28;20140;-88
2022/01/02 07:02:48;;;;;;;7.70;3.03;;;11.30;99.90;;;;;;5071077;28;20044;-88
2022/01/02 07:05:14;;;;;;;4.97;2.50;;;11.30;99.90;;;;;;5087716;28;20044;-88
2022/01/02 07:07:44;;;;;;;4.80;3.10;;;11.30;99.90;;;;;;5053632;28;20572;-88
2022/01/02 07:10:11;;;;;;;4.53;2.20;;;11.30;99.90;;;;;;5087664;28;20045;-88
2022/01/02 07:12:37;;;;;;;5.28;2.30;;;11.40;99.90;;;;;;5053857;28;20052;-88
2022/01/02 07:15:08;;;;;;;4.10;2.28;;;11.30;99.90;;;;;;5054424;28;20127;-88
2022/01/02 07:17:34;;;;;;;6.57;2.70;;;11.40;99.90;;;;;;5087394;28;20040;-87
2022/01/02 07:19:59;;;;;;;3.13;2.25;;;11.30;99.90;;;;;;5087905;28;20376;-89
2022/01/02 07:22:25;;;;;;;5.23;2.70;;;11.30;99.90;;;;;;5070473;28;20037;-88
2022/01/02 07:24:51;;;;;;;2.43;2.10;;;11.30;99.90;;;;;;5054061;28;20041;-88
2022/01/02 07:27:21;;;;;;;5.13;2.65;;;11.30;99.90;;;;;;5087980;28;20055;-87
2022/01/02 07:29:48;;;;;;;5.20;2.47;;;11.20;99.90;;;;;;5057395;28;20486;-87
2022/01/02 07:32:14;;;;;;;5.45;2.45;;;11.20;99.90;;;;;;5057893;28;20056;-87
2022/01/02 07:34:40;;;;;;;4.38;2.65;;;11.20;99.90;;;;;;5057335;28;20107;-87
2022/01/02 07:37:06;;;;;;;5.13;2.53;;;11.20;99.90;;;;;;5057097;28;20091;-86
2022/01/02 07:39:32;;;;;;;4.80;2.90;;;11.20;99.90;;;;;;5073996;28;20083;-87
2022/01/02 07:41:57;;;;;;;7.77;3.00;;;11.20;99.90;;;;;;5057668;28;20123;-87
2022/01/02 07:44:23;;;;;;;4.17;2.43;;;11.20;99.90;;;;;;5074294;28;20098;-87
2022/01/02 07:46:49;;;;;;;4.73;2.67;;;11.20;99.90;;;;;;5057288;28;20512;-88
2022/01/02 07:49:15;;;;;;;4.30;2.47;;;11.20;99.90;;;;;;5057638;28;20036;-87
2022/01/02 07:51:40;;;;;;;6.17;2.53;;;11.10;99.90;;;;;;5090802;28;20057;-90
2022/01/02 07:54:12;;;;;;;6.80;2.97;;;11.20;99.90;;;;;;5058858;28;20106;-90
2022/01/02 07:56:42;;;;;;;3.45;2.97;;;11.10;99.90;;;;;;5090464;28;20381;-88
2022/01/02 07:59:08;;;;;;;4.95;2.90;;;11.10;99.90;;;;;;5057445;28;20066;-88
2022/01/02 08:01:34;;;;;;;6.57;2.65;;;11.10;99.90;;;;;;5057015;28;20407;-87
2022/01/02 08:04:03;;;;;;;4.72;2.72;;;11.10;99.90;;;;;;5057051;28;20086;-87
2022/01/02 08:06:29;;;;;;;2.83;2.30;;;11.00;99.90;;;;;;5056863;28;20398;-88
2022/01/02 08:08:54;;;;;;;7.07;3.07;;;11.00;99.90;;;;;;5056896;28;20044;-89
2022/01/02 08:11:20;;;;;;;4.50;2.97;;;11.00;99.90;;;;;;5074473;28;20557;-92
2022/01/02 08:13:46;;;;;;;5.30;3.03;;;11.00;99.90;;;;;;5057101;28;20045;-90
2022/01/02 08:16:22;;;;;;;2.80;2.33;;;11.00;99.90;;;;;;5057960;28;20053;-90
2022/01/02 08:18:48;;;;;;;5.65;3.00;;;11.00;99.90;;;;;;5057204;28;20048;-88
2022/01/02 08:21:16;;;;;;;6.03;3.17;;;11.00;99.90;;;;;;5073512;28;20556;-87
2022/01/02 08:23:42;;;;;;;4.07;2.80;;;10.90;99.90;;;;;;5056193;28;20449;-88
2022/01/02 08:26:10;;;;;;;6.57;3.53;;;10.90;99.90;;;;;;5056882;28;20044;-88
2022/01/02 08:28:39;;;;;;;3.90;2.97;;;10.90;99.90;;;;;;5089583;28;20048;-94
2022/01/02 08:31:04;;;;;;;6.10;2.97;;;10.90;99.90;;;;;;5090560;28;20051;-88
2022/01/02 08:33:31;;;;;;;4.30;3.07;;;10.90;99.90;;;;;;5056814;28;20045;-89
2022/01/02 08:35:57;;;;;;;3.78;2.58;;;10.60;99.90;;;;;;5056175;28;20041;-88
2022/01/02 08:38:23;;;;;;;4.47;2.87;;;10.80;99.90;;;;;;5072990;28;20037;-86
2022/01/02 08:40:49;;;;;;;5.05;3.50;;;10.80;99.90;;;;;;5072048;28;20305;-86
2022/01/02 08:43:17;;;;;;;5.05;2.85;;;10.50;99.90;;;;;;5055711;28;20059;-87
2022/01/02 08:45:45;;;;;;;8.02;3.13;;;10.80;99.90;;;;;;5089367;28;20079;-87
2022/01/02 08:48:14;;;;;;;4.88;2.33;;;10.80;99.90;;;;;;5056530;28;20098;-87
2022/01/02 08:50:49;;;;;;;7.45;2.60;;;10.80;99.90;;;;;;5089553;28;20131;-88
2022/01/02 08:53:17;;;;;;;4.22;2.88;;;10.50;99.90;;;;;;5072355;28;20067;-85
2022/01/02 08:55:43;;;;;;;4.70;2.60;;;9.90;99.90;;;;;;5072474;28;20053;-86
2022/01/02 08:58:09;;;;;;;4.87;2.33;;;10.80;99.90;;;;;;5056214;28;20422;-85
2022/01/02 09:00:35;;;;;;;5.45;2.55;;;10.80;99.90;;;;;;5055879;28;20048;-86
2022/01/02 09:03:02;;;;;;;3.20;2.10;;;10.80;99.90;;;;;;5055662;28;20090;-85
2022/01/02 09:05:28;;;;;;;4.10;3.15;;;10.80;99.90;;;;;;5055899;28;20036;-86
2022/01/02 09:07:57;;;;;;;2.83;2.63;;;10.70;99.90;;;;;;5089426;28;20045;-86
2022/01/02 09:10:23;;;;;;;9.35;2.53;;;9.90;99.90;;;;;;5072857;28;20109;-86
2022/01/02 09:12:49;;;;;;;;;;;10.80;99.90;;;;;;5055346;28;20131;-87
2022/01/02 09:15:15;;;;;;;4.22;3.00;;;10.70;99.90;;;;;;5089075;28;20007;-86
2022/01/02 09:17:41;;;;;;;8.15;2.75;;;10.70;99.90;;;;;;5055194;28;20045;-86
2022/01/02 09:20:08;;;;;;;4.27;3.23;;;10.80;99.90;;;;;;5055620;28;20048;-86
2022/01/02 09:22:36;;;;;;;5.15;3.38;;;10.70;99.90;;;;;;5055527;28;20059;-86
2022/01/02 09:25:03;;;;;;;6.78;3.45;;;10.80;99.90;;;;;;5088208;28;20044;-86
2022/01/02 09:27:29;;;;;;;7.78;3.15;;;10.80;99.90;;;;;;5055904;28;20044;-86
2022/01/02 09:29:55;;;;;;;5.17;2.93;;;10.80;99.90;;;;;;5055354;28;20102;-86
2022/01/02 09:32:21;;;;;;;4.95;2.80;;;10.70;99.90;;;;;;5055577;28;20048;-84
2022/01/02 09:34:49;;;;;;;6.47;3.13;;;10.80;99.90;;;;;;5071223;28;20135;-86
2022/01/02 09:37:15;;;;;;;6.55;3.15;;;10.90;99.90;;;;;;5055227;28;20049;-85
2022/01/02 09:39:48;;;;;;;3.07;2.43;;;10.80;99.90;;;;;;5055176;28;20056;-88
2022/01/02 09:42:13;;;;;;;3.95;2.92;;;10.90;99.90;;;;;;5055658;28;20056;-82
2022/01/02 09:44:39;;;;;;;4.23;3.30;;;10.90;99.90;;;;;;5088414;28;20073;-86
2022/01/02 09:47:07;;;;;;;6.80;3.00;;;11.00;99.90;;;;;;5054190;28;20066;-85
2022/01/02 09:49:36;;;;;;;3.85;2.63;;;11.00;99.90;;;;;;5054966;28;20052;-86
2022/01/02 09:52:02;;;;;;;6.38;3.92;;;11.10;99.90;;;;;;5054309;28;20059;-86
2022/01/02 09:54:32;;;;;;;8.40;3.27;;;11.10;99.90;;;;;;5054626;28;20058;-85
2022/01/02 09:56:58;;;;;;;5.10;2.88;;;10.70;99.90;;;;;;5054595;28;20123;-86
2022/01/02 09:59:26;;;;;;;4.60;2.67;;;11.10;99.90;;;;;;5059055;28;20182;-87
2022/01/02 10:01:54;;;;;;;6.13;2.78;;;11.10;99.90;;;;;;5071349;28;20186;-84
2022/01/02 10:04:39;;;;;;;5.45;3.03;;;11.20;99.90;;;;;;5071588;28;20045;-84
2022/01/02 10:07:23;;;;;;;5.22;3.15;;;11.20;99.90;;;;;;5054469;28;20259;-86
2022/01/02 10:09:50;;;;;;;6.63;3.35;;;11.20;99.90;;;;;;5054384;28;20095;-87
2022/01/02 10:12:33;;;;;;;6.35;3.17;;;11.20;99.90;;;;;;5054301;28;20051;-86
2022/01/02 10:15:14;;;;;;;4.18;3.33;;;11.20;99.90;;;;;;5054999;28;20485;-85
2022/01/02 10:18:04;;;;;;;3.70;3.33;;;11.20;99.90;;;;;;5055240;28;20094;-85
2022/01/02 10:20:39;;;;;;;4.68;3.05;;;11.20;99.90;;;;;;5088733;28;20048;-85
2022/01/02 10:23:23;;;;;;;5.05;3.55;;;11.20;99.90;;;;;;5054584;28;20098;-84
2022/01/02 10:25:55;;;;;;;9.82;3.30;;;11.20;99.90;;;;;;5088074;28;20037;-85
2022/01/02 10:28:30;;;;;;;3.28;2.97;;;11.20;99.90;;;;;;5088250;28;20048;-85
2022/01/02 10:31:08;;;;;;;9.00;4.32;;;11.20;99.90;;;;;;5073038;28;20045;-85
2022/01/02 10:33:56;;;;;;;3.55;3.13;;;11.10;99.90;;;;;;5071824;28;20044;-85
2022/01/02 10:36:25;;;;;;;5.03;3.65;;;11.10;99.90;;;;;;5062302;28;20126;-84
2022/01/02 10:39:18;;;;;;;6.65;3.97;;;11.20;99.90;;;;;;5054886;28;20482;-85
2022/01/02 10:41:49;;;;;;;5.82;3.05;;;11.10;99.90;;;;;;5055015;28;20078;-85
2022/01/02 10:44:30;;;;;;;7.55;3.53;;;11.10;99.90;;;;;;5054488;28;20425;-86
2022/01/02 10:47:08;;;;;;;5.22;3.85;;;11.20;99.90;;;;;;5054118;28;20044;-87
2022/01/02 10:49:59;;;;;;;5.70;3.58;;;11.10;99.90;;;;;;5054220;28;20560;-86
2022/01/02 10:52:28;;;;;;;5.63;2.88;;;11.10;99.90;;;;;;5054459;28;20487;-86
2022/01/02 10:54:57;;;;;;;4.65;3.78;;;11.20;99.90;;;;;;5072203;28;20045;-86
2022/01/02 10:57:23;;;;;;;4.32;3.47;;;11.20;99.90;;;;;;5071035;28;20045;-86
2022/01/02 10:59:49;;;;;;;7.82;3.95;;;11.20;99.90;;;;;;5054585;28;20449;-90
2022/01/02 11:02:16;;;;;;;9.00;4.53;;;11.20;99.90;;;;;;5054923;28;20128;-85
2022/01/02 11:04:50;;;;;;;4.75;3.17;;;11.20;99.90;;;;;;5074803;28;20037;-86
2022/01/02 11:07:24;;;;;;;6.20;3.90;;;11.20;99.90;;;;;;5058176;28;20114;-86
2022/01/02 11:09:55;;;;;;;6.18;4.35;;;10.40;99.90;;;;;;5091683;28;20052;-87
2022/01/02 11:12:21;;;;;;;5.72;3.45;;;11.20;99.90;;;;;;5058135;28;20394;-87
2022/01/02 11:14:48;;;;;;;4.47;3.60;;;11.20;99.90;;;;;;5057992;28;20044;-86
2022/01/02 11:17:14;;;;;;;4.20;3.58;;;11.20;99.90;;;;;;5057869;28;20052;-85
2022/01/02 11:19:45;;;;;;;5.38;4.20;;;11.20;99.90;;;;;;5057945;28;20049;-86
2022/01/02 11:22:25;;;;;;;6.25;3.15;;;11.20;99.90;;;;;;5057633;28;20118;-86
2022/01/02 11:25:02;;;;;;;8.40;3.58;;;11.20;99.90;;;;;;5057667;28;20484;-86
2022/01/02 11:27:39;;;;;;;5.37;3.67;;;11.20;99.90;;;;;;5074492;28;20379;-88
2022/01/02 11:30:43;;;;;;;5.97;4.25;;;10.40;99.90;;;;;;5057466;28;20632;-85
2022/01/02 11:33:13;;;;;;;4.95;3.67;;;11.20;99.90;;;;;;5073188;28;20106;-86
2022/01/02 11:42:44;;;;;;;6.70;3.88;;;11.10;99.90;;;;;;5062112;28;20076;-84
2022/01/02 11:45:39;;;;;;;4.45;3.42;;;11.20;99.90;;;;;;5090716;28;20219;-85
2022/01/02 11:48:28;;;;;;;3.75;3.38;;;11.10;99.90;;;;;;5091307;28;20050;-85
2022/01/02 11:50:54;;;;;;;6.78;3.92;;;11.20;99.90;;;;;;5091735;28;20117;-85
2022/01/02 11:53:23;;;;;;;4.83;3.77;;;11.10;99.90;;;;;;5056984;28;20513;-85
2022/01/02 11:55:50;;;;;;;7.07;3.80;;;11.20;99.90;;;;;;5057776;28;20442;-85
2022/01/02 11:58:38;;;;;;;6.55;3.35;;;11.10;99.90;;;;;;5090960;28;20084;-85
2022/01/02 12:01:06;;;;;;;6.18;3.70;;;11.20;99.90;;;;;;5057391;28;20051;-85
2022/01/02 12:03:38;;;;;;;4.50;3.13;;;11.20;99.90;;;;;;5057612;28;20135;-84
2022/01/02 12:06:20;;;;;;;7.53;3.47;;;11.20;99.90;;;;;;5090625;28;20490;-85
2022/01/02 12:08:46;;;;;;;6.82;2.92;;;11.20;99.90;;;;;;5057865;28;20045;-85
2022/01/02 12:11:31;;;;;;;5.00;2.72;;;11.20;99.90;;;;;;5057289;28;20075;-85
2022/01/02 12:14:15;;;;;;;3.58;2.47;;;11.20;99.90;;;;;;5056874;28;20074;-84
2022/01/02 12:16:43;;;;;;;8.07;2.60;;;11.30;99.90;;;;;;5091069;28;20087;-85
2022/01/02 12:19:09;;;;;;;6.13;2.80;;;11.20;99.90;;;;;;5090297;28;20041;-85
2022/01/02 12:21:40;;;;;;;8.10;2.20;;;11.30;99.90;;;;;;5057101;28;20041;-84
2022/01/02 12:24:12;;;;;;;3.65;2.00;;;11.30;99.90;;;;;;5090535;28;20132;-85
2022/01/02 12:26:39;;;;;;;5.93;2.15;;;11.20;99.90;;;;;;5057004;28;20044;-84
2022/01/02 12:29:13;;;;;;;;;;;11.20;99.90;;;;;;5056909;28;20443;-88
2022/01/02 12:31:44;;;;;;;5.93;2.25;;;11.10;99.90;;;;;;5073912;28;19920;-85
2022/01/02 12:34:18;;;;;;;4.75;2.22;;;11.10;99.90;;;;;;5056705;28;20089;-85
2022/01/02 12:36:49;;;;;;;7.85;2.38;;;11.20;99.90;;;;;;5090645;28;20037;-85
2022/01/02 12:39:32;;;;;;;3.67;2.28;;;11.20;99.90;;;;;;5073293;28;20052;-85
2022/01/02 12:42:03;;;;;;;3.28;2.20;;;11.20;99.90;;;;;;5056898;28;20044;-84
2022/01/02 12:44:31;;;;;;;5.85;2.65;;;11.20;99.90;;;;;;5056324;28;20041;-84
2022/01/02 12:46:59;;;;;;;3.40;2.33;;;11.20;99.90;;;;;;5056894;28;20177;-85
2022/01/02 12:49:31;;;;;;;5.65;2.05;;;11.20;99.90;;;;;;5056404;28;20075;-84
2022/01/02 12:52:05;;;;;;;5.60;2.20;;;11.20;99.90;;;;;;5056976;28;20056;-84
2022/01/02 12:54:33;;;;;;;3.95;2.15;;;11.20;99.90;;;;;;5072162;28;20633;-85
2022/01/02 12:57:01;;;;;;;6.38;2.30;;;11.20;99.90;;;;;;5056709;28;20126;-85
2022/01/02 12:59:37;;;;;;;6.45;1.98;;;11.10;99.90;;;;;;5089435;28;20048;-84
2022/01/02 13:02:07;;;;;;;3.08;2.08;;;10.90;99.90;;;;;;5074109;28;20548;-84
2022/01/02 13:04:41;;;;;;;4.85;2.08;;;11.10;99.90;;;;;;5072705;28;20040;-85
2022/01/02 13:07:13;;;;;;;5.15;2.08;;;11.00;99.90;;;;;;5056162;28;20048;-86
2022/01/02 13:10:25;;;;;;;;;;;;;;;;;;;;;
2022/01/02 13:12:51;;;;;;;6.30;2.22;;;11.00;99.90;;;;;;5068493;28;20090;-84
2022/01/02 13:15:18;;;;;;;5.27;2.43;;;11.10;99.90;;;;;;5056057;28;20048;-85
2022/01/02 13:17:53;;;;;;;3.95;1.98;;;11.00;99.90;;;;;;5056790;28;20044;-84
2022/01/02 13:20:43;;;;;;;4.30;2.55;;;11.10;99.90;;;;;;5056055;28;20462;-85